CSL Niagara — VCGJ — position and weather

sailwx.info

Track history (hours):
 
Tides and Currents Weather Stations Pressure Air Temp Water Temp Dewpoint Dewpoint Depression Visibility Wind Speed Wind Dir Waves Ship Positions

CSL Niagara

ex J. W. McGiffin

Last reported at 2014-Oct-19 11:25 UTC. Time now 2014-Oct-22 01:45 UTC.
Position N 47°02' W 085°53'.

Length 225 m; draft 7.2 m.

Type: Cargo ship. MMSI: 316029000.

Date/timePositionNaut miles runAvg speedWind from/ knotsBaromVisibWave heightAir tempDewpointWater temp
2014-Oct-19 11:25N 47°02' W 085°53'5911.6
2014-Oct-19 06:19N 46°32' W 084°39'311 6.2
2014-Oct-17 04:31N 42°29' W 080°06'9 9.4
2014-Oct-17 03:33N 42°38' W 080°01'10 3.2
2014-Oct-17 00:33N 42°47' W 080°05'0 0.0
2014-Oct-16 23:33N 42°47' W 080°05'0 0.0
2014-Oct-16 22:33N 42°47' W 080°05'0 0.0
2014-Oct-16 21:33N 42°47' W 080°05'0 0.0
2014-Oct-16 20:33N 42°47' W 080°05'0 0.0
2014-Oct-16 19:33N 42°47' W 080°05'0 0.0
2014-Oct-16 18:33N 42°47' W 080°05'0 0.0
2014-Oct-16 17:33N 42°47' W 080°05'0 0.0
2014-Oct-16 16:33N 42°47' W 080°05'0 0.0
2014-Oct-16 15:33N 42°47' W 080°05'0 0.0
2014-Oct-16 14:33N 42°47' W 080°05'0 0.0
2014-Oct-16 13:33N 42°47' W 080°05'0 0.0
2014-Oct-16 12:33N 42°47' W 080°05'0 0.0
2014-Oct-16 11:33N 42°47' W 080°05'2 1.8
2014-Oct-16 10:33N 42°45' W 080°05'9 8.7
2014-Oct-16 09:33N 42°37' W 080°02'10 9.0
2014-Oct-16 08:30N 42°27' W 080°04'5 0.1
2014-Oct-14 09:27N 42°32' W 080°00'9 9.8
2014-Oct-14 08:33N 42°41' W 080°02'7 6.6
2014-Oct-14 07:33N 42°47' W 080°05'0 0.0
2014-Oct-14 06:33N 42°47' W 080°05'0 0.0
2014-Oct-14 05:33N 42°47' W 080°05'0 0.0
2014-Oct-14 04:33N 42°47' W 080°05'0 0.0
2014-Oct-14 03:33N 42°47' W 080°05'0 0.0
2014-Oct-14 02:33N 42°47' W 080°05'0 0.0
2014-Oct-14 01:33N 42°47' W 080°05'0 0.0
2014-Oct-14 00:33N 42°47' W 080°05'0 0.0
2014-Oct-13 23:33N 42°47' W 080°05'0 0.0
2014-Oct-13 22:33N 42°47' W 080°05'1 0.7
2014-Oct-13 21:33N 42°46' W 080°04'7 7.0
2014-Oct-13 20:33N 42°39' W 080°04'9 9.3
2014-Oct-13 19:33N 42°30' W 080°03'265 6.8
2014-Oct-12 04:26N 45°57' W 083°53'11 9.1
2014-Oct-12 03:14N 46°06' W 084°01'  
Track history (hours):
 
Tides and Currents Weather Stations Pressure Air Temp Water Temp Dewpoint Dewpoint Depression Visibility Wind Speed Wind Dir Waves Ship Positions

CSL Niagara

ex J. W. McGiffin

Last reported at 2014-Oct-19 11:25 UTC. Time now 2014-Oct-22 01:45 UTC.
Position N 47°02' W 085°53'.

Length 225 m; draft 7.2 m.

Type: Cargo ship. MMSI: 316029000.

Date/timePositionNaut miles runAvg speedWind from/ knotsBaromVisibWave heightAir tempDewpointWater temp
2014-Oct-19 11:25N 47°02' W 085°53'5911.6
2014-Oct-19 06:19N 46°32' W 084°39'311 6.2
2014-Oct-17 04:31N 42°29' W 080°06'9 9.4
2014-Oct-17 03:33N 42°38' W 080°01'10 3.2
2014-Oct-17 00:33N 42°47' W 080°05'0 0.0
2014-Oct-16 23:33N 42°47' W 080°05'0 0.0
2014-Oct-16 22:33N 42°47' W 080°05'0 0.0
2014-Oct-16 21:33N 42°47' W 080°05'0 0.0
2014-Oct-16 20:33N 42°47' W 080°05'0 0.0
2014-Oct-16 19:33N 42°47' W 080°05'0 0.0
2014-Oct-16 18:33N 42°47' W 080°05'0 0.0
2014-Oct-16 17:33N 42°47' W 080°05'0 0.0
2014-Oct-16 16:33N 42°47' W 080°05'0 0.0
2014-Oct-16 15:33N 42°47' W 080°05'0 0.0
2014-Oct-16 14:33N 42°47' W 080°05'0 0.0
2014-Oct-16 13:33N 42°47' W 080°05'0 0.0
2014-Oct-16 12:33N 42°47' W 080°05'0 0.0
2014-Oct-16 11:33N 42°47' W 080°05'2 1.8
2014-Oct-16 10:33N 42°45' W 080°05'9 8.7
2014-Oct-16 09:33N 42°37' W 080°02'10 9.0
2014-Oct-16 08:30N 42°27' W 080°04'5 0.1
2014-Oct-14 09:27N 42°32' W 080°00'9 9.8
2014-Oct-14 08:33N 42°41' W 080°02'7 6.6
2014-Oct-14 07:33N 42°47' W 080°05'0 0.0
2014-Oct-14 06:33N 42°47' W 080°05'0 0.0
2014-Oct-14 05:33N 42°47' W 080°05'0 0.0
2014-Oct-14 04:33N 42°47' W 080°05'0 0.0
2014-Oct-14 03:33N 42°47' W 080°05'0 0.0
2014-Oct-14 02:33N 42°47' W 080°05'0 0.0
2014-Oct-14 01:33N 42°47' W 080°05'0 0.0
2014-Oct-14 00:33N 42°47' W 080°05'0 0.0
2014-Oct-13 23:33N 42°47' W 080°05'0 0.0
2014-Oct-13 22:33N 42°47' W 080°05'1 0.7
2014-Oct-13 21:33N 42°46' W 080°04'7 7.0
2014-Oct-13 20:33N 42°39' W 080°04'9 9.3
2014-Oct-13 19:33N 42°30' W 080°03'265 6.8
2014-Oct-12 04:26N 45°57' W 083°53'11 9.1
2014-Oct-12 03:14N 46°06' W 084°01'  

Dump ship's entire track history